Aérodrome :
LOGIN :

S'inscrire | Disclaimer

   EN    FR    IT 

 










Légende :    VFR   VFR Marginal   IFR   IFR Intensif   IFR Très Intensif
Visi : 
Plafond : 
>= 8 km
>= 3000ft
5 à 8 km
1000 à 3000 ft
1500m à 5 km
500 à 1000 ft
800 à 1500m
200 à 500 ft
< 800m
< 200 ft
Symboles :   Orages  Brouillard  Fortes neiges  Fortes précipitations  Vent > 20 kt
SIGMETs :   Divers  Orages  Givrage  Turbulence  Onde Orograph.  Cendres Volcan.






- Altitude de l'aérodrome : 1465 ft


LSMP - Payerne

DERNIER METAR :
  • 012150Z AUTO 05003KT 020V080 9999NDV NCD 14/12 Q1023 RMK

METARs EXPIRÉS :
  • 012120Z AUTO 02004KT 9999NDV NCD 15/12 Q1023 RMK
  • 012050Z AUTO VRB02KT 9999NDV NCD 15/12 Q1022 RMK
  • 012020Z AUTO 04003KT 9999NDV NCD 15/12 Q1022 RMK
  • 010550Z 00000KT 9999 SHRA FEW018 SCT040 13/12 Q1019 RESHRA RMK BLU+
  • 011950Z AUTO 04003KT 010V080 9999NDV NCD 16/12 Q1022 RMK
  • 011920Z AUTO 03004KT 010V070 9999NDV NCD 18/12 Q1021 RMK

Prévision TAF périmée.



MET'MAP, la Météo Aéronautique d'un coup d'oeil ! - Copyright ORBIFLY Décembre 2007 - Disclaimer

ORBIFLY MET'MAP TEAM :

Programmation & Développement : Alexandra Zaïnal
Sur une idée originale de : Baudouin d'Aumeries
Soutien technique & logistique : Manuel Goepfert
Assistance : Marc-Olivier Méhu




SOURCES & CREDITS :

   NOAA